Time;durP1;ratioP1;P1;durP2;ratioP2;P2;SDS_P1;SDS_P2;PMS_P1;PMS_P2;Temp;Humidity;BMP_temperature;BMP_pressure;BME280_temperature;BME280_humidity;BME280_pressure;Samples;Min_cycle;Max_cycle;Signal;HPM_P1;HPM_P2
2023/12/17 00:01:23;;;;;;;1.07;0.90;;;0.90;99.90;;;;;;5080889;28;20506;-82
2023/12/17 00:03:51;;;;;;;1.60;1.17;;;0.90;99.90;;;;;;5079575;28;20939;-82
2023/12/17 00:06:18;;;;;;;1.00;0.90;;;0.90;99.90;;;;;;5075884;28;20463;-83
2023/12/17 00:08:45;;;;;;;1.73;1.10;;;0.80;99.90;;;;;;5082465;28;20899;-82
2023/12/17 00:11:12;;;;;;;1.90;1.70;;;0.90;99.90;;;;;;5082158;28;20526;-83
2023/12/17 00:13:39;;;;;;;4.13;1.27;;;1.00;99.90;;;;;;5065208;28;20843;-83
2023/12/17 00:16:07;;;;;;;1.90;1.30;;;1.10;99.90;;;;;;5083509;28;20459;-83
2023/12/17 00:18:34;;;;;;;1.40;1.17;;;1.10;99.90;;;;;;5076991;28;20443;-82
2023/12/17 00:21:03;;;;;;;2.50;1.80;;;1.10;99.90;;;;;;5090192;28;20843;-82
2023/12/17 00:23:30;;;;;;;2.80;1.60;;;1.00;99.90;;;;;;5079187;28;20465;-82
2023/12/17 00:25:57;;;;;;;1.43;1.17;;;0.90;99.90;;;;;;5069424;28;20515;-82
2023/12/17 00:28:24;;;;;;;1.50;1.17;;;0.80;99.90;;;;;;5083742;28;20500;-82
2023/12/17 00:30:51;;;;;;;1.30;1.00;;;0.70;99.90;;;;;;5080328;28;20868;-82
2023/12/17 00:33:18;;;;;;;3.40;1.80;;;0.70;99.90;;;;;;5064149;28;20851;-84
2023/12/17 00:35:45;;;;;;;3.60;1.80;;;0.60;99.90;;;;;;5082023;28;20500;-84
2023/12/17 00:38:14;;;;;;;1.73;1.20;;;0.60;99.90;;;;;;5080492;28;20568;-82
2023/12/17 00:40:41;;;;;;;2.43;2.23;;;0.60;99.90;;;;;;5062529;28;20733;-84
2023/12/17 00:43:08;;;;;;;2.00;1.10;;;0.60;99.90;;;;;;5072923;28;20464;-84
2023/12/17 00:45:34;;;;;;;1.70;1.27;;;0.60;99.90;;;;;;5087023;28;20471;-83
2023/12/17 00:48:01;;;;;;;2.47;1.20;;;0.80;99.90;;;;;;5079197;28;20447;-83
2023/12/17 00:50:28;;;;;;;1.70;1.40;;;0.80;99.90;;;;;;5072047;28;21038;-82
2023/12/17 00:52:55;;;;;;;2.40;1.60;;;0.80;99.90;;;;;;5070315;28;21139;-82
2023/12/17 00:55:25;;;;;;;1.93;1.30;;;0.70;99.90;;;;;;5074123;28;20495;-82
2023/12/17 00:57:52;;;;;;;1.70;1.17;;;0.70;99.90;;;;;;5075095;28;20503;-83
2023/12/17 01:00:19;;;;;;;2.03;1.90;;;0.60;99.90;;;;;;5083289;28;20450;-82
2023/12/17 01:02:46;;;;;;;1.10;1.00;;;0.60;99.90;;;;;;5071779;28;20561;-82
2023/12/17 01:05:13;;;;;;;1.90;1.70;;;0.50;99.90;;;;;;5075444;28;20546;-82
2023/12/17 01:07:40;;;;;;;5.50;3.07;;;0.50;99.90;;;;;;5078152;28;20454;-82
2023/12/17 01:10:08;;;;;;;4.13;2.87;;;0.50;99.90;;;;;;5081156;28;20709;-82
2023/12/17 01:12:36;;;;;;;1.60;0.80;;;0.40;99.90;;;;;;5077041;28;20451;-81
2023/12/17 01:15:03;;;;;;;2.80;1.30;;;0.50;99.90;;;;;;5073573;28;21002;-83
2023/12/17 01:17:31;;;;;;;4.53;1.73;;;0.50;99.90;;;;;;5076745;28;20872;-83
2023/12/17 01:19:58;;;;;;;1.90;1.30;;;0.40;99.90;;;;;;5083657;28;20458;-83
2023/12/17 01:22:25;;;;;;;2.60;1.57;;;0.30;99.90;;;;;;5072787;28;20467;-83
2023/12/17 01:24:54;;;;;;;1.87;1.23;;;0.30;99.90;;;;;;5086663;28;20550;-83
2023/12/17 01:27:21;;;;;;;2.47;1.10;;;0.30;99.90;;;;;;5069576;28;20485;-83
2023/12/17 01:29:50;;;;;;;2.20;1.60;;;0.20;99.90;;;;;;5074104;28;20593;-83
2023/12/17 01:32:17;;;;;;;1.57;1.43;;;0.20;99.90;;;;;;5075111;28;20515;-83
2023/12/17 01:34:44;;;;;;;2.83;1.83;;;0.10;99.90;;;;;;5086379;28;20486;-83
2023/12/17 01:37:11;;;;;;;1.33;1.23;;;0.10;99.90;;;;;;5075349;28;20467;-83
2023/12/17 01:39:38;;;;;;;1.57;1.47;;;0.10;99.90;;;;;;5073755;28;20761;-82
2023/12/17 01:42:05;;;;;;;2.30;1.60;;;0.20;99.90;;;;;;5082419;28;20447;-83
2023/12/17 01:44:32;;;;;;;1.10;1.00;;;0.10;99.90;;;;;;5085565;28;20469;-82
2023/12/17 01:47:01;;;;;;;2.30;1.20;;;0.10;99.90;;;;;;5069511;28;20837;-82
2023/12/17 01:49:28;;;;;;;1.30;0.90;;;0.10;99.90;;;;;;5077618;28;20539;-82
2023/12/17 01:51:55;;;;;;;1.20;0.80;;;-0.10;99.90;;;;;;5069574;28;20513;-82
2023/12/17 01:54:22;;;;;;;1.10;1.00;;;-0.20;99.90;;;;;;5074876;28;20487;-82
2023/12/17 01:56:49;;;;;;;2.30;1.53;;;-0.20;99.90;;;;;;5077478;28;20486;-82
2023/12/17 01:59:16;;;;;;;2.43;1.73;;;-0.20;99.90;;;;;;5076489;28;20448;-82
2023/12/17 02:01:44;;;;;;;2.10;0.70;;;-0.10;99.90;;;;;;5076581;28;20463;-82
2023/12/17 02:04:13;;;;;;;1.53;1.17;;;-0.10;99.90;;;;;;5086323;28;20439;-83
2023/12/17 02:06:40;;;;;;;1.00;0.80;;;-0.10;99.90;;;;;;5078915;28;20483;-82
2023/12/17 02:09:08;;;;;;;1.30;1.20;;;0.10;99.90;;;;;;5080837;28;20443;-82
2023/12/17 02:11:35;;;;;;;2.27;1.90;;;0.10;99.90;;;;;;5071958;28;21020;-82
2023/12/17 02:14:02;;;;;;;1.13;1.03;;;0.10;99.90;;;;;;5081702;28;20491;-82
2023/12/17 02:16:29;;;;;;;1.50;1.20;;;0.20;99.90;;;;;;5072509;28;20523;-82
2023/12/17 02:18:58;;;;;;;2.13;1.23;;;0.20;99.90;;;;;;5068455;28;20447;-82
2023/12/17 02:21:27;;;;;;;1.87;1.33;;;0.20;99.90;;;;;;5074447;28;20470;-81
2023/12/17 02:23:55;;;;;;;2.10;1.27;;;0.20;99.90;;;;;;5080433;28;20907;-81
2023/12/17 02:26:22;;;;;;;1.27;1.00;;;0.20;99.90;;;;;;5066761;28;20475;-81
2023/12/17 02:28:49;;;;;;;5.20;1.90;;;0.20;99.90;;;;;;5073222;28;20447;-83
2023/12/17 02:31:16;;;;;;;1.07;1.00;;;0.20;99.90;;;;;;5070673;28;20451;-83
2023/12/17 02:33:43;;;;;;;2.27;1.37;;;0.20;99.90;;;;;;5065969;28;20485;-81
2023/12/17 02:36:10;;;;;;;1.17;1.07;;;0.10;99.90;;;;;;5078882;28;21037;-81
2023/12/17 02:38:37;;;;;;;1.27;0.93;;;0.00;99.90;;;;;;5072480;28;20463;-81
2023/12/17 02:41:06;;;;;;;2.60;1.40;;;0.00;99.90;;;;;;5074618;28;20464;-83
2023/12/17 02:43:33;;;;;;;4.73;2.00;;;-0.10;99.90;;;;;;5066521;28;20471;-84
2023/12/17 02:46:00;;;;;;;1.73;1.63;;;-0.10;99.90;;;;;;5085473;28;20894;-84
2023/12/17 02:48:26;;;;;;;1.37;1.10;;;-0.10;99.90;;;;;;5074683;28;20520;-84
2023/12/17 02:50:53;;;;;;;1.10;0.93;;;-0.20;99.90;;;;;;5074343;28;20540;-84
2023/12/17 02:53:20;;;;;;;1.57;1.10;;;-0.10;99.90;;;;;;5074285;28;20626;-83
2023/12/17 02:55:47;;;;;;;1.97;1.33;;;-0.20;99.90;;;;;;5064892;28;20549;-83
2023/12/17 02:58:16;;;;;;;1.77;1.67;;;-0.20;99.90;;;;;;5073849;28;20451;-83
2023/12/17 03:00:43;;;;;;;2.93;1.50;;;-0.20;99.90;;;;;;5076603;28;20505;-83
2023/12/17 03:03:10;;;;;;;1.50;1.23;;;-0.20;99.90;;;;;;5078536;28;20910;-83
2023/12/17 03:05:36;;;;;;;1.77;1.20;;;-0.20;99.90;;;;;;5074074;28;20923;-82
2023/12/17 03:08:03;;;;;;;1.60;1.10;;;-0.30;99.90;;;;;;5079122;28;20466;-83
2023/12/17 03:10:30;;;;;;;2.07;1.63;;;-0.40;99.90;;;;;;5082130;28;20488;-83
2023/12/17 03:12:57;;;;;;;1.50;1.40;;;-0.40;99.90;;;;;;5084599;28;20447;-82
2023/12/17 03:15:26;;;;;;;1.63;1.00;;;-0.40;99.90;;;;;;5081368;28;20551;-83
2023/12/17 03:17:53;;;;;;;1.23;1.13;;;-0.50;99.90;;;;;;5071883;28;20451;-83
2023/12/17 03:20:20;;;;;;;16.43;2.50;;;-0.70;99.90;;;;;;5074815;28;20517;-83
2023/12/17 03:22:46;;;;;;;1.93;1.73;;;-0.70;99.90;;;;;;5065045;28;20508;-83
2023/12/17 03:25:13;;;;;;;1.23;1.10;;;-0.70;99.90;;;;;;5076762;28;20515;-83
2023/12/17 03:27:41;;;;;;;1.90;0.80;;;-0.70;99.90;;;;;;5083146;28;20521;-83
2023/12/17 03:30:09;;;;;;;1.13;0.80;;;-0.80;99.90;;;;;;5081545;28;20458;-83
2023/12/17 03:32:37;;;;;;;2.10;1.43;;;-0.70;99.90;;;;;;5076360;28;20440;-83
2023/12/17 03:35:05;;;;;;;1.30;1.20;;;-0.70;99.90;;;;;;5075598;28;20490;-83
2023/12/17 03:37:32;;;;;;;1.33;1.23;;;-0.60;99.90;;;;;;5069305;28;20470;-83
2023/12/17 03:39:59;;;;;;;1.30;1.20;;;-0.60;99.90;;;;;;5083511;28;20830;-81
2023/12/17 03:42:26;;;;;;;1.67;1.03;;;-0.50;99.90;;;;;;5065648;28;20956;-82
2023/12/17 03:44:53;;;;;;;1.23;1.13;;;-0.40;99.90;;;;;;5062377;28;20949;-82
2023/12/17 03:47:20;;;;;;;5.23;1.20;;;-0.40;99.90;;;;;;5077054;28;20455;-82
2023/12/17 03:49:48;;;;;;;3.43;1.50;;;-0.50;99.90;;;;;;5077360;28;20447;-80
2023/12/17 03:52:15;;;;;;;1.40;1.30;;;-0.30;99.90;;;;;;5077657;28;20795;-82
2023/12/17 03:54:42;;;;;;;1.57;1.17;;;-0.30;99.90;;;;;;5071757;28;20482;-80
2023/12/17 03:57:09;;;;;;;1.63;1.20;;;-0.30;99.90;;;;;;5072586;28;20552;-81
2023/12/17 03:59:38;;;;;;;1.33;0.97;;;-0.30;99.90;;;;;;5081925;28;20481;-82
2023/12/17 04:02:04;;;;;;;1.73;1.03;;;-0.30;99.90;;;;;;5072542;28;20455;-81
2023/12/17 04:04:32;;;;;;;0.93;0.83;;;-0.30;99.90;;;;;;5082848;28;20522;-81
2023/12/17 04:07:00;;;;;;;1.43;1.23;;;-0.30;99.90;;;;;;5077259;28;20802;-82
2023/12/17 04:09:27;;;;;;;1.27;1.10;;;-0.20;99.90;;;;;;5072985;28;20531;-81
2023/12/17 04:11:54;;;;;;;1.87;1.47;;;-0.20;99.90;;;;;;5074018;28;20496;-82
2023/12/17 04:14:21;;;;;;;1.97;0.93;;;-0.10;99.90;;;;;;5070198;28;20483;-82
2023/12/17 04:16:49;;;;;;;2.00;1.53;;;-0.20;99.90;;;;;;5076946;28;20462;-82
2023/12/17 04:19:16;;;;;;;2.33;1.53;;;-0.10;99.90;;;;;;5069928;28;20450;-82
2023/12/17 04:21:43;;;;;;;1.97;1.10;;;-0.20;99.90;;;;;;5062811;28;20520;-82
2023/12/17 04:24:11;;;;;;;1.90;1.03;;;-0.20;99.90;;;;;;5076224;28;20521;-82
2023/12/17 04:26:38;;;;;;;1.30;1.00;;;-0.20;99.90;;;;;;5069612;28;20444;-82
2023/12/17 04:29:05;;;;;;;1.13;0.90;;;-0.20;99.90;;;;;;5074784;28;20458;-81
2023/12/17 04:31:32;;;;;;;1.47;1.37;;;-0.20;99.90;;;;;;5073138;28;20447;-82
2023/12/17 04:33:59;;;;;;;1.50;1.40;;;-0.20;99.90;;;;;;5070798;28;20487;-82
2023/12/17 04:36:26;;;;;;;1.10;0.80;;;-0.20;99.90;;;;;;5083871;28;20973;-82
2023/12/17 04:38:53;;;;;;;1.97;1.20;;;-0.20;99.90;;;;;;5079178;28;20528;-82
2023/12/17 04:41:21;;;;;;;1.70;1.43;;;-0.20;99.90;;;;;;5076205;28;20794;-82
2023/12/17 04:43:48;;;;;;;1.67;0.70;;;-0.20;99.90;;;;;;5072887;28;20549;-83
2023/12/17 04:46:15;;;;;;;0.80;0.70;;;-0.20;99.90;;;;;;5081993;28;20443;-83
2023/12/17 04:48:42;;;;;;;2.27;0.97;;;-0.20;99.90;;;;;;5073159;28;20454;-83
2023/12/17 04:51:09;;;;;;;4.73;1.33;;;-0.30;99.90;;;;;;5069043;28;20459;-82
2023/12/17 04:53:36;;;;;;;0.70;0.70;;;-0.30;99.90;;;;;;5072275;28;20447;-83
2023/12/17 04:56:04;;;;;;;1.07;0.90;;;-0.30;99.90;;;;;;5081054;28;20526;-83
2023/12/17 04:58:32;;;;;;;0.67;0.63;;;-0.20;99.90;;;;;;5077652;28;20529;-83
2023/12/17 05:00:59;;;;;;;1.00;0.80;;;-0.20;99.90;;;;;;5069930;28;20447;-82
2023/12/17 05:03:26;;;;;;;1.17;1.00;;;-0.20;99.90;;;;;;5071435;28;20846;-83
2023/12/17 05:05:53;;;;;;;2.80;1.47;;;-0.20;99.90;;;;;;5075219;28;20992;-83
2023/12/17 05:08:21;;;;;;;2.00;1.47;;;-0.20;99.90;;;;;;5073501;28;20511;-82
2023/12/17 05:10:47;;;;;;;2.97;1.63;;;-0.20;99.90;;;;;;5085482;28;20454;-82
2023/12/17 05:13:15;;;;;;;6.73;1.20;;;-0.20;99.90;;;;;;5080598;28;20889;-82
2023/12/17 05:15:43;;;;;;;3.17;1.87;;;-0.20;99.90;;;;;;5069156;28;20486;-82
2023/12/17 05:18:10;;;;;;;1.43;1.33;;;-0.30;99.90;;;;;;5073164;28;20450;-82
2023/12/17 05:20:37;;;;;;;1.70;1.37;;;-0.20;99.90;;;;;;5073848;28;20455;-82
2023/12/17 05:23:05;;;;;;;2.03;1.83;;;-0.20;99.90;;;;;;5076053;28;20477;-82
2023/12/17 05:25:32;;;;;;;1.47;0.90;;;-0.10;99.90;;;;;;5074440;28;20474;-82
2023/12/17 05:27:59;;;;;;;3.63;1.20;;;-0.10;99.90;;;;;;5083916;28;20470;-82
2023/12/17 05:30:26;;;;;;;2.03;1.07;;;-0.20;99.90;;;;;;5070830;28;20455;-82
2023/12/17 05:32:54;;;;;;;1.43;1.33;;;-0.10;99.90;;;;;;5074292;28;20689;-82
2023/12/17 05:35:21;;;;;;;1.30;1.20;;;0.00;99.90;;;;;;5077499;28;20482;-82
2023/12/17 05:37:48;;;;;;;2.90;1.10;;;0.00;99.90;;;;;;5072091;28;20835;-82
2023/12/17 05:40:15;;;;;;;1.63;0.90;;;0.10;99.90;;;;;;5085461;28;20536;-82
2023/12/17 05:42:42;;;;;;;2.30;1.50;;;0.10;99.90;;;;;;5077689;28;20880;-82
2023/12/17 05:45:10;;;;;;;1.57;1.47;;;0.10;99.90;;;;;;5076747;28;21005;-83
2023/12/17 05:47:39;;;;;;;1.00;0.90;;;0.20;99.90;;;;;;5075543;28;20446;-82
2023/12/17 05:50:09;;;;;;;2.20;2.00;;;0.10;99.90;;;;;;5081276;28;20462;-82
2023/12/17 05:52:37;;;;;;;1.83;1.47;;;0.00;99.90;;;;;;5077606;28;20602;-82
2023/12/17 05:55:05;;;;;;;4.90;4.07;;;0.00;99.90;;;;;;5078633;28;20489;-82
2023/12/17 05:57:33;;;;;;;6.17;5.50;;;-0.10;99.90;;;;;;5078649;28;20451;-82
2023/12/17 06:00:00;;;;;;;8.57;5.37;;;-0.20;99.90;;;;;;5082863;28;20474;-82
2023/12/17 06:02:27;;;;;;;5.03;3.47;;;-0.10;99.90;;;;;;5072836;28;20533;-82
2023/12/17 06:04:54;;;;;;;8.50;5.87;;;-0.10;99.90;;;;;;5074189;28;20779;-81
2023/12/17 06:07:22;;;;;;;3.87;3.00;;;0.00;99.90;;;;;;5080518;28;21082;-81
2023/12/17 06:09:49;;;;;;;7.00;5.20;;;0.00;99.90;;;;;;5082838;28;20451;-82
2023/12/17 06:12:16;;;;;;;22.03;11.60;;;0.00;99.90;;;;;;5072591;28;20471;-82
2023/12/17 06:14:43;;;;;;;9.43;6.63;;;0.00;99.90;;;;;;5072304;28;20528;-82
2023/12/17 06:17:11;;;;;;;5.40;3.60;;;0.00;99.90;;;;;;5067877;28;20483;-83
2023/12/17 06:19:39;;;;;;;2.77;2.43;;;-0.20;99.90;;;;;;5078727;28;20986;-83
2023/12/17 06:22:06;;;;;;;3.27;2.60;;;-0.40;99.90;;;;;;5072599;28;20444;-83
2023/12/17 06:24:34;;;;;;;7.67;3.47;;;-0.40;99.90;;;;;;5080214;28;20466;-83
2023/12/17 06:27:01;;;;;;;2.40;1.90;;;-0.20;99.90;;;;;;5069697;28;20987;-83
2023/12/17 06:29:28;;;;;;;1.30;1.10;;;-0.10;99.90;;;;;;5075160;28;20538;-82
2023/12/17 06:31:55;;;;;;;2.00;1.40;;;0.00;99.90;;;;;;5084701;28;20466;-82
2023/12/17 06:34:22;;;;;;;1.00;0.80;;;0.10;99.90;;;;;;5078508;28;20847;-82
2023/12/17 06:36:49;;;;;;;1.30;1.10;;;0.10;99.90;;;;;;5069019;28;20445;-83
2023/12/17 06:39:16;;;;;;;1.60;1.40;;;0.10;99.90;;;;;;5065911;28;20525;-82
2023/12/17 06:41:47;;;;;;;4.80;2.37;;;0.10;99.90;;;;;;5073270;28;20542;-83
2023/12/17 06:44:16;;;;;;;3.60;2.67;;;0.10;99.90;;;;;;5069724;28;20478;-82
2023/12/17 06:46:43;;;;;;;9.63;6.33;;;0.00;99.90;;;;;;5067753;28;20513;-82
2023/12/17 06:49:10;;;;;;;11.60;7.00;;;0.00;99.90;;;;;;5069985;28;20785;-82
2023/12/17 06:51:40;;;;;;;7.73;4.47;;;0.00;99.90;;;;;;5064868;28;20534;-82
2023/12/17 06:54:07;;;;;;;2.10;1.17;;;0.00;99.90;;;;;;5069753;28;21098;-82
2023/12/17 06:56:34;;;;;;;0.80;0.63;;;0.00;99.90;;;;;;5072688;28;20560;-81
2023/12/17 06:59:03;;;;;;;1.00;0.87;;;0.00;99.90;;;;;;5068565;28;20465;-81
2023/12/17 07:01:30;;;;;;;2.20;2.00;;;0.00;99.90;;;;;;5069504;28;20505;-82
2023/12/17 07:03:57;;;;;;;1.43;1.23;;;-0.20;99.90;;;;;;5071027;28;21478;-81
2023/12/17 07:06:24;;;;;;;1.87;1.70;;;-0.30;99.90;;;;;;5072742;28;20915;-81
2023/12/17 07:08:51;;;;;;;2.93;1.40;;;-0.40;99.90;;;;;;5073226;28;20848;-81
2023/12/17 07:11:18;;;;;;;2.43;1.93;;;-0.30;99.90;;;;;;5082399;28;20899;-81
2023/12/17 07:13:45;;;;;;;1.63;1.30;;;-0.40;99.90;;;;;;5065579;28;20521;-81
2023/12/17 07:16:22;;;;;;;3.13;2.40;;;-0.50;99.90;;;;;;5073341;28;20483;-81
2023/12/17 07:18:49;;;;;;;2.57;2.33;;;-0.50;99.90;;;;;;5074941;28;20450;-81
2023/12/17 07:21:16;;;;;;;2.77;1.90;;;-0.40;99.90;;;;;;5067675;28;20878;-81
2023/12/17 07:23:43;;;;;;;1.83;1.73;;;-0.30;99.90;;;;;;5086447;28;20560;-81
2023/12/17 07:26:10;;;;;;;3.83;1.67;;;-0.40;99.90;;;;;;5071418;28;20435;-81
2023/12/17 07:28:37;;;;;;;1.90;1.80;;;-0.40;99.90;;;;;;5081246;28;20434;-80
2023/12/17 07:31:04;;;;;;;3.30;3.00;;;-0.40;99.90;;;;;;5070406;28;21353;-85
2023/12/17 07:33:33;;;;;;;4.37;2.10;;;-0.40;99.90;;;;;;5081333;28;20443;-81
2023/12/17 07:36:00;;;;;;;5.83;1.70;;;-0.40;99.90;;;;;;5076358;28;20526;-81
2023/12/17 07:38:27;;;;;;;1.30;1.20;;;-0.30;99.90;;;;;;5082050;28;20467;-81
2023/12/17 07:40:54;;;;;;;1.83;1.70;;;-0.20;99.90;;;;;;5081225;28;20447;-81
2023/12/17 07:43:21;;;;;;;1.53;1.43;;;0.00;99.90;;;;;;5074370;28;20508;-81
2023/12/17 07:45:48;;;;;;;2.20;1.83;;;0.10;99.90;;;;;;5069497;28;20439;-81
2023/12/17 07:48:15;;;;;;;2.23;1.63;;;0.10;99.90;;;;;;5081613;28;20445;-81
2023/12/17 07:50:44;;;;;;;2.80;1.63;;;0.20;99.90;;;;;;5071563;28;20467;-81
2023/12/17 07:53:11;;;;;;;2.00;1.80;;;0.30;99.90;;;;;;5081317;28;20437;-81
2023/12/17 07:55:38;;;;;;;4.47;4.13;;;0.30;99.90;;;;;;5078251;28;20560;-81
2023/12/17 07:58:04;;;;;;;1.97;1.87;;;0.30;99.90;;;;;;5069546;28;21279;-81
2023/12/17 08:00:31;;;;;;;2.90;2.67;;;0.50;99.90;;;;;;5077193;28;20515;-81
2023/12/17 08:02:58;;;;;;;2.43;2.23;;;0.50;99.90;;;;;;5075513;28;20547;-81
2023/12/17 08:05:25;;;;;;;4.33;3.93;;;0.60;99.90;;;;;;5077314;28;20463;-81
2023/12/17 08:07:54;;;;;;;3.10;2.80;;;0.60;99.90;;;;;;5075261;28;20450;-81
2023/12/17 08:10:21;;;;;;;3.97;3.50;;;0.60;99.90;;;;;;5071375;28;20467;-81
2023/12/17 08:12:48;;;;;;;3.20;2.90;;;0.60;99.90;;;;;;5066815;28;20440;-81
2023/12/17 08:15:15;;;;;;;2.20;1.43;;;0.70;99.90;;;;;;5071479;28;20494;-81
2023/12/17 08:17:42;;;;;;;3.80;3.13;;;0.70;99.90;;;;;;5068552;28;20471;-81
2023/12/17 08:20:10;;;;;;;5.30;4.40;;;0.70;99.90;;;;;;5076344;28;21404;-81
2023/12/17 08:22:37;;;;;;;4.10;2.87;;;0.90;99.90;;;;;;5067032;28;20492;-81
2023/12/17 08:25:06;;;;;;;4.60;3.07;;;1.00;99.90;;;;;;5075107;28;20511;-82
2023/12/17 08:27:33;;;;;;;7.53;6.17;;;1.10;99.90;;;;;;5081777;28;20443;-81
2023/12/17 08:30:00;;;;;;;10.23;6.67;;;1.20;99.90;;;;;;5079951;28;20459;-83
2023/12/17 08:32:31;;;;;;;3.93;2.57;;;1.30;99.90;;;;;;5081722;28;20627;-83
2023/12/17 08:34:59;;;;;;;7.23;4.97;;;1.30;99.90;;;;;;5070037;28;20482;-82
2023/12/17 08:37:26;;;;;;;1.40;1.30;;;1.50;99.90;;;;;;5074761;28;20557;-83
2023/12/17 08:39:53;;;;;;;3.10;2.40;;;1.60;99.90;;;;;;5073453;28;21031;-83
2023/12/17 08:42:22;;;;;;;3.30;2.83;;;1.70;99.90;;;;;;5081580;27;20550;-83
2023/12/17 08:44:50;;;;;;;5.83;3.87;;;1.70;99.90;;;;;;5071307;28;20501;-83
2023/12/17 08:47:17;;;;;;;8.03;4.07;;;1.80;99.90;;;;;;5081106;28;20793;-82
2023/12/17 08:49:44;;;;;;;2.77;1.90;;;1.90;99.90;;;;;;5072508;28;20467;-82
2023/12/17 08:52:12;;;;;;;3.47;2.57;;;1.90;99.90;;;;;;5074247;28;20519;-82
2023/12/17 08:54:39;;;;;;;2.60;2.40;;;2.00;99.90;;;;;;5073213;28;20555;-82
2023/12/17 08:57:07;;;;;;;5.00;3.30;;;2.10;99.90;;;;;;5078929;28;21020;-83
2023/12/17 08:59:35;;;;;;;3.60;3.00;;;2.20;99.90;;;;;;5079373;28;20459;-82
2023/12/17 09:02:02;;;;;;;12.17;10.13;;;2.30;99.90;;;;;;5076615;28;21098;-82
2023/12/17 09:04:29;;;;;;;15.03;11.00;;;2.30;99.90;;;;;;5080588;28;20460;-82
2023/12/17 09:06:56;;;;;;;60.73;38.20;;;2.60;99.90;;;;;;5079923;28;20600;-81
2023/12/17 09:09:23;;;;;;;18.73;14.10;;;3.10;99.90;;;;;;5088514;28;20803;-81
2023/12/17 09:11:49;;;;;;;7.93;4.23;;;3.00;99.90;;;;;;5083754;28;20493;-81
2023/12/17 09:14:16;;;;;;;3.57;3.27;;;2.90;99.90;;;;;;5079422;28;20451;-82
2023/12/17 09:16:46;;;;;;;3.70;2.80;;;3.00;99.90;;;;;;5072928;28;20574;-81
2023/12/17 09:19:13;;;;;;;2.60;2.40;;;3.00;99.90;;;;;;5079531;28;20466;-81
2023/12/17 09:21:40;;;;;;;1.53;1.43;;;3.00;99.90;;;;;;5072217;28;20467;-82
2023/12/17 09:24:07;;;;;;;2.43;1.73;;;3.00;99.90;;;;;;5066330;28;20554;-81
2023/12/17 09:26:34;;;;;;;2.20;1.63;;;3.10;99.90;;;;;;5066667;28;21147;-82
2023/12/17 09:29:01;;;;;;;3.13;2.83;;;3.10;99.90;;;;;;5069710;28;20447;-82
2023/12/17 09:31:28;;;;;;;2.90;1.67;;;3.20;99.90;;;;;;5076277;28;20556;-82
2023/12/17 09:33:57;;;;;;;2.43;1.60;;;3.20;99.90;;;;;;5066827;28;20471;-81
2023/12/17 09:36:25;;;;;;;2.27;2.00;;;3.40;99.90;;;;;;5092492;28;20486;-81
2023/12/17 09:38:52;;;;;;;7.43;5.40;;;3.30;99.90;;;;;;5074228;28;20459;-82
2023/12/17 09:41:19;;;;;;;5.80;4.07;;;3.30;99.90;;;;;;5070412;28;20491;-82
2023/12/17 09:43:46;;;;;;;5.13;2.90;;;3.40;99.90;;;;;;5068377;28;20528;-82
2023/12/17 09:46:13;;;;;;;3.33;2.30;;;3.40;99.90;;;;;;5072866;28;20831;-81
2023/12/17 09:48:40;;;;;;;3.63;3.17;;;3.40;99.90;;;;;;5084783;28;20519;-82
2023/12/17 09:51:10;;;;;;;6.43;3.90;;;3.30;99.90;;;;;;5075815;28;20951;-82
2023/12/17 09:53:37;;;;;;;5.70;3.50;;;3.40;99.90;;;;;;5083073;28;20457;-82
2023/12/17 09:56:05;;;;;;;4.03;2.83;;;3.30;99.90;;;;;;5074568;28;20994;-82
2023/12/17 09:58:31;;;;;;;3.37;2.57;;;3.30;99.90;;;;;;5083068;28;20443;-82
2023/12/17 10:01:00;;;;;;;4.73;3.87;;;3.30;99.90;;;;;;5074519;28;20455;-82
2023/12/17 10:03:27;;;;;;;5.37;2.97;;;3.30;99.90;;;;;;5069667;28;20532;-82
2023/12/17 10:05:54;;;;;;;6.10;3.90;;;3.30;99.90;;;;;;5082607;28;20528;-82
2023/12/17 10:08:24;;;;;;;4.20;3.77;;;3.40;99.90;;;;;;5070842;28;20496;-82
2023/12/17 10:10:51;;;;;;;3.90;3.50;;;3.30;99.90;;;;;;5081951;28;20459;-81
2023/12/17 10:13:19;;;;;;;4.37;3.97;;;3.40;99.90;;;;;;5081166;28;20444;-82
2023/12/17 10:15:49;;;;;;;4.37;3.17;;;3.50;99.90;;;;;;5076389;28;20575;-82
2023/12/17 10:18:17;;;;;;;3.90;3.60;;;3.40;99.90;;;;;;5080366;28;20847;-82
2023/12/17 10:20:45;;;;;;;4.40;4.00;;;3.50;99.90;;;;;;5084217;28;20933;-82
2023/12/17 10:23:12;;;;;;;4.80;4.30;;;3.60;99.90;;;;;;5070437;28;20504;-82
2023/12/17 10:25:40;;;;;;;5.10;3.60;;;3.70;99.90;;;;;;5067423;28;20468;-82
2023/12/17 10:28:10;;;;;;;3.03;2.73;;;3.70;99.90;;;;;;5075050;28;20877;-82
2023/12/17 10:30:37;;;;;;;5.27;3.50;;;3.60;99.90;;;;;;5077306;28;20498;-82
2023/12/17 10:33:10;;;;;;;3.47;3.10;;;3.60;99.90;;;;;;5065833;28;20524;-82
2023/12/17 10:35:36;;;;;;;2.40;2.03;;;3.60;99.90;;;;;;5082732;28;20962;-82
2023/12/17 10:38:05;;;;;;;3.20;2.90;;;3.60;99.90;;;;;;5084099;28;20463;-82
2023/12/17 10:40:33;;;;;;;5.60;4.53;;;3.70;99.90;;;;;;5075643;28;20501;-82
2023/12/17 10:43:05;;;;;;;3.13;2.87;;;3.70;99.90;;;;;;5078539;28;20458;-82
2023/12/17 10:45:33;;;;;;;3.47;2.53;;;3.80;99.90;;;;;;5078588;28;20463;-82
2023/12/17 10:48:00;;;;;;;3.73;3.13;;;3.80;99.90;;;;;;5077798;28;20459;-82
2023/12/17 10:50:28;;;;;;;4.43;3.00;;;3.80;99.90;;;;;;5084043;28;20500;-82
2023/12/17 10:52:55;;;;;;;6.43;5.30;;;3.90;99.90;;;;;;5067287;28;20460;-82
2023/12/17 10:55:23;;;;;;;3.70;3.20;;;3.90;99.90;;;;;;5083818;28;21090;-82
2023/12/17 10:57:55;;;;;;;4.60;2.13;;;4.00;99.90;;;;;;5070614;28;20482;-82
2023/12/17 11:00:26;;;;;;;2.37;2.03;;;4.10;99.90;;;;;;5077463;28;20452;-82
2023/12/17 11:02:58;;;;;;;3.83;2.60;;;4.30;99.90;;;;;;5070081;28;20716;-83
2023/12/17 11:05:25;;;;;;;1.83;1.73;;;4.30;99.90;;;;;;5072405;28;20472;-82
2023/12/17 11:07:53;;;;;;;1.77;1.67;;;4.20;99.90;;;;;;5080280;28;20443;-83
2023/12/17 11:10:20;;;;;;;2.50;1.67;;;4.20;99.90;;;;;;5080915;28;20451;-83
2023/12/17 11:12:47;;;;;;;2.03;1.37;;;4.10;99.90;;;;;;5081048;28;20504;-83
2023/12/17 11:15:14;;;;;;;2.43;2.23;;;4.10;99.90;;;;;;5067889;28;20504;-82
2023/12/17 11:17:43;;;;;;;2.57;1.53;;;4.20;99.90;;;;;;5065989;28;20484;-82
2023/12/17 11:20:10;;;;;;;2.13;1.93;;;4.30;99.90;;;;;;5080005;28;20500;-82
2023/12/17 11:22:38;;;;;;;2.17;1.97;;;4.40;99.90;;;;;;5085281;28;20530;-82
2023/12/17 11:25:10;;;;;;;1.53;1.43;;;4.50;99.90;;;;;;5079221;28;20544;-82
2023/12/17 11:27:38;;;;;;;2.70;1.50;;;4.40;99.90;;;;;;5081417;28;20485;-82
2023/12/17 11:30:28;;;;;;;2.57;1.67;;;4.50;99.90;;;;;;5078205;28;20442;-82
2023/12/17 11:32:59;;;;;;;1.97;1.57;;;4.50;99.90;;;;;;5072503;28;20536;-82
2023/12/17 11:35:27;;;;;;;1.87;1.63;;;4.50;99.90;;;;;;5074245;28;20521;-83
2023/12/17 11:37:54;;;;;;;2.00;1.43;;;4.50;99.90;;;;;;5069979;28;20548;-83
2023/12/17 11:40:22;;;;;;;2.50;1.60;;;4.50;99.90;;;;;;5069004;28;20456;-83
2023/12/17 11:43:02;;;;;;;1.87;1.40;;;4.60;99.90;;;;;;5077239;28;20490;-83
2023/12/17 11:45:35;;;;;;;1.20;1.10;;;4.50;99.90;;;;;;5089139;28;20462;-83
2023/12/17 11:48:12;;;;;;;1.10;1.00;;;4.50;99.90;;;;;;5075719;28;20502;-82
2023/12/17 11:50:44;;;;;;;2.60;1.40;;;4.50;99.90;;;;;;5077719;28;20463;-82
2023/12/17 11:53:13;;;;;;;2.23;2.03;;;4.60;99.90;;;;;;5073516;28;21115;-82
2023/12/17 11:55:47;;;;;;;3.07;2.73;;;4.60;99.90;;;;;;5078476;28;20516;-83
2023/12/17 11:58:19;;;;;;;7.90;4.03;;;4.60;99.90;;;;;;5072990;28;20548;-83
2023/12/17 12:01:01;;;;;;;13.30;6.30;;;4.60;99.90;;;;;;5084687;28;20479;-83
2023/12/17 12:03:31;;;;;;;5.50;4.40;;;4.70;99.90;;;;;;5067357;28;20446;-83
2023/12/17 12:05:59;;;;;;;1.40;1.10;;;4.70;99.90;;;;;;5071711;28;20463;-83
2023/12/17 12:08:26;;;;;;;1.87;1.67;;;4.70;99.90;;;;;;5064151;28;20980;-83
2023/12/17 12:10:53;;;;;;;2.90;2.20;;;4.80;99.90;;;;;;5070386;28;20452;-83
2023/12/17 12:13:20;;;;;;;4.77;3.77;;;4.80;99.90;;;;;;5078863;28;20448;-83
2023/12/17 12:15:47;;;;;;;12.80;8.23;;;4.90;99.90;;;;;;5071645;28;20466;-83
2023/12/17 12:18:21;;;;;;;11.20;7.00;;;5.00;99.90;;;;;;5078493;28;20814;-82
2023/12/17 12:20:49;;;;;;;7.00;4.67;;;5.00;99.90;;;;;;5073386;28;20534;-82
2023/12/17 12:23:17;;;;;;;15.30;8.67;;;5.00;99.90;;;;;;5082752;28;20809;-82
2023/12/17 12:25:44;;;;;;;6.80;4.30;;;5.00;99.90;;;;;;5083512;28;20504;-82
2023/12/17 12:28:17;;;;;;;15.43;7.63;;;5.00;99.90;;;;;;5068885;28;20896;-82
2023/12/17 12:30:45;;;;;;;8.90;5.07;;;5.10;99.90;;;;;;5080245;28;20497;-82
2023/12/17 12:33:12;;;;;;;10.73;6.47;;;5.10;99.90;;;;;;5092661;28;20445;-82
2023/12/17 12:35:40;;;;;;;5.90;4.00;;;5.10;99.90;;;;;;5080165;28;20537;-82
2023/12/17 12:38:25;;;;;;;20.87;10.93;;;5.20;99.90;;;;;;5082256;28;20503;-83
2023/12/17 12:40:53;;;;;;;5.37;3.23;;;5.20;99.90;;;;;;5082175;28;20463;-83
2023/12/17 12:43:21;;;;;;;7.73;4.40;;;5.30;99.90;;;;;;5073698;28;20446;-82
2023/12/17 12:45:50;;;;;;;11.67;7.17;;;5.20;99.90;;;;;;5075871;28;20451;-83
2023/12/17 12:48:19;;;;;;;9.93;5.77;;;5.30;99.90;;;;;;5079006;28;20467;-82
2023/12/17 12:50:46;;;;;;;7.00;5.00;;;5.30;99.90;;;;;;5064981;28;20912;-83
2023/12/17 12:53:13;;;;;;;15.27;11.73;;;5.30;99.90;;;;;;5079580;28;20625;-82
2023/12/17 12:55:41;;;;;;;3.27;2.40;;;5.30;99.90;;;;;;5064333;28;20859;-83